sensor_id;sensor_type;location;lat;lon;timestamp;pressure;altitude;pressure_sealevel;temperature;humidity
80149;BME280;69473;42.426;26.644;2023-04-28T00:02:00;99174.00;;;9.48;66.46
80149;BME280;69473;42.426;26.644;2023-04-28T00:04:26;99191.28;;;9.54;66.87
80149;BME280;69473;42.426;26.644;2023-04-28T00:06:51;99180.94;;;9.54;66.04
80149;BME280;69473;42.426;26.644;2023-04-28T00:09:17;99182.63;;;9.45;67.86
80149;BME280;69473;42.426;26.644;2023-04-28T00:11:44;99184.25;;;9.31;67.23
80149;BME280;69473;42.426;26.644;2023-04-28T00:14:11;99175.69;;;9.35;68.04
80149;BME280;69473;42.426;26.644;2023-04-28T00:16:36;99184.34;;;9.49;67.07
80149;BME280;69473;42.426;26.644;2023-04-28T00:19:02;99192.06;;;9.43;67.51
80149;BME280;69473;42.426;26.644;2023-04-28T00:21:27;99193.84;;;9.47;67.00
80149;BME280;69473;42.426;26.644;2023-04-28T00:23:53;99193.00;;;9.52;67.17
80149;BME280;69473;42.426;26.644;2023-04-28T00:26:19;99198.94;;;9.37;68.53
80149;BME280;69473;42.426;26.644;2023-04-28T00:28:45;99188.59;;;9.32;68.52
80149;BME280;69473;42.426;26.644;2023-04-28T00:31:12;99203.22;;;9.30;67.32
80149;BME280;69473;42.426;26.644;2023-04-28T00:33:41;99199.75;;;9.28;66.92
80149;BME280;69473;42.426;26.644;2023-04-28T00:36:08;99204.00;;;9.18;66.47
80149;BME280;69473;42.426;26.644;2023-04-28T00:38:34;99211.72;;;9.12;68.35
80149;BME280;69473;42.426;26.644;2023-04-28T00:41:00;99216.75;;;8.89;69.98
80149;BME280;69473;42.426;26.644;2023-04-28T00:43:25;99207.97;;;8.72;70.64
80149;BME280;69473;42.426;26.644;2023-04-28T00:45:51;99215.66;;;8.63;70.54
80149;BME280;69473;42.426;26.644;2023-04-28T00:48:17;99228.66;;;8.72;70.08
80149;BME280;69473;42.426;26.644;2023-04-28T00:50:44;99231.06;;;8.53;71.10
80149;BME280;69473;42.426;26.644;2023-04-28T00:53:11;99236.25;;;8.50;71.54
80149;BME280;69473;42.426;26.644;2023-04-28T00:55:37;99239.56;;;8.40;71.36
80149;BME280;69473;42.426;26.644;2023-04-28T00:58:04;99242.22;;;8.46;70.39
80149;BME280;69473;42.426;26.644;2023-04-28T01:00:30;99240.50;;;8.48;70.83
80149;BME280;69473;42.426;26.644;2023-04-28T01:02:56;99227.06;;;8.86;67.86
80149;BME280;69473;42.426;26.644;2023-04-28T01:05:24;99231.47;;;8.98;66.09
80149;BME280;69473;42.426;26.644;2023-04-28T01:07:50;99226.97;;;8.77;66.88
80149;BME280;69473;42.426;26.644;2023-04-28T01:10:16;99226.00;;;8.66;67.13
80149;BME280;69473;42.426;26.644;2023-04-28T01:12:41;99227.75;;;8.65;66.41
80149;BME280;69473;42.426;26.644;2023-04-28T01:15:14;99225.09;;;8.58;67.42
80149;BME280;69473;42.426;26.644;2023-04-28T01:17:41;99237.06;;;8.49;66.94
80149;BME280;69473;42.426;26.644;2023-04-28T01:20:07;99240.44;;;8.42;67.88
80149;BME280;69473;42.426;26.644;2023-04-28T01:22:33;99241.31;;;8.41;68.69
80149;BME280;69473;42.426;26.644;2023-04-28T01:24:58;99231.88;;;8.46;68.69
80149;BME280;69473;42.426;26.644;2023-04-28T01:27:24;99235.19;;;8.36;68.94
80149;BME280;69473;42.426;26.644;2023-04-28T01:29:50;99231.75;;;8.37;68.15
80149;BME280;69473;42.426;26.644;2023-04-28T01:32:15;99235.16;;;8.33;67.48
80149;BME280;69473;42.426;26.644;2023-04-28T01:34:41;99231.56;;;8.19;68.67
80149;BME280;69473;42.426;26.644;2023-04-28T01:37:06;99236.03;;;8.33;67.46
80149;BME280;69473;42.426;26.644;2023-04-28T01:39:32;99237.09;;;8.52;65.15
80149;BME280;69473;42.426;26.644;2023-04-28T01:41:59;99240.47;;;8.45;64.67
80149;BME280;69473;42.426;26.644;2023-04-28T01:44:24;99231.88;;;8.46;64.61
80149;BME280;69473;42.426;26.644;2023-04-28T01:46:50;99231.88;;;8.46;63.84
80149;BME280;69473;42.426;26.644;2023-04-28T01:49:15;99233.44;;;8.32;63.81
80149;BME280;69473;42.426;26.644;2023-04-28T01:51:41;99238.53;;;8.26;64.58
80149;BME280;69473;42.426;26.644;2023-04-28T01:54:07;99224.63;;;8.12;65.31
80149;BME280;69473;42.426;26.644;2023-04-28T01:56:32;99238.56;;;8.29;64.12
80149;BME280;69473;42.426;26.644;2023-04-28T01:58:58;99234.84;;;8.02;65.60
80149;BME280;69473;42.426;26.644;2023-04-28T02:01:23;99241.66;;;7.97;66.32
80149;BME280;69473;42.426;26.644;2023-04-28T02:03:49;99234.84;;;8.02;65.92
80149;BME280;69473;42.426;26.644;2023-04-28T02:06:14;99229.78;;;8.12;65.02
80149;BME280;69473;42.426;26.644;2023-04-28T02:08:40;99240.28;;;8.30;63.35
80149;BME280;69473;42.426;26.644;2023-04-28T02:11:05;99245.47;;;8.30;63.25
80149;BME280;69473;42.426;26.644;2023-04-28T02:13:31;99245.38;;;8.22;62.80
80149;BME280;69473;42.426;26.644;2023-04-28T02:15:59;99240.22;;;8.24;62.22
80149;BME280;69473;42.426;26.644;2023-04-28T02:18:25;99236.69;;;8.16;62.18
80149;BME280;69473;42.426;26.644;2023-04-28T02:20:51;99247.09;;;8.22;62.04
80149;BME280;69473;42.426;26.644;2023-04-28T02:23:16;99249.59;;;8.16;63.32
80149;BME280;69473;42.426;26.644;2023-04-28T02:25:42;99242.69;;;8.12;63.51
80149;BME280;69473;42.426;26.644;2023-04-28T02:28:07;99233.22;;;8.10;63.20
80149;BME280;69473;42.426;26.644;2023-04-28T02:30:33;99247.00;;;8.16;64.01
80149;BME280;69473;42.426;26.644;2023-04-28T02:32:59;99236.66;;;8.13;63.82
80149;BME280;69473;42.426;26.644;2023-04-28T02:35:24;99252.22;;;8.19;62.88
80149;BME280;69473;42.426;26.644;2023-04-28T02:37:50;99254.75;;;8.16;63.44
80149;BME280;69473;42.426;26.644;2023-04-28T02:40:16;99248.63;;;8.04;63.07
80149;BME280;69473;42.426;26.644;2023-04-28T02:42:42;99255.63;;;8.15;63.36
80149;BME280;69473;42.426;26.644;2023-04-28T02:45:07;99255.50;;;8.05;63.78
80149;BME280;69473;42.426;26.644;2023-04-28T02:47:33;99259.03;;;8.10;63.70
80149;BME280;69473;42.426;26.644;2023-04-28T02:49:59;99267.66;;;8.14;63.29
80149;BME280;69473;42.426;26.644;2023-04-28T02:52:24;99263.31;;;8.10;63.15
80149;BME280;69473;42.426;26.644;2023-04-28T02:54:50;99264.13;;;8.04;62.76
80149;BME280;69473;42.426;26.644;2023-04-28T02:57:18;99274.41;;;8.01;63.08
80149;BME280;69473;42.426;26.644;2023-04-28T02:59:44;99276.13;;;8.02;62.84
80149;BME280;69473;42.426;26.644;2023-04-28T03:02:10;99276.09;;;7.99;62.02
80149;BME280;69473;42.426;26.644;2023-04-28T03:04:36;99269.19;;;7.98;60.20
80149;BME280;69473;42.426;26.644;2023-04-28T03:07:02;99277.88;;;8.06;60.17
80149;BME280;69473;42.426;26.644;2023-04-28T03:09:27;99278.63;;;7.96;59.78
80149;BME280;69473;42.426;26.644;2023-04-28T03:11:53;99277.69;;;7.91;60.96
80149;BME280;69473;42.426;26.644;2023-04-28T03:14:19;99281.16;;;7.93;60.14
80149;BME280;69473;42.426;26.644;2023-04-28T03:16:44;99278.94;;;8.24;57.79
80149;BME280;69473;42.426;26.644;2023-04-28T03:19:10;99287.28;;;8.00;59.94
80149;BME280;69473;42.426;26.644;2023-04-28T03:21:35;99272.41;;;7.80;59.21
80149;BME280;69473;42.426;26.644;2023-04-28T03:24:01;99289.66;;;7.83;60.03
80149;BME280;69473;42.426;26.644;2023-04-28T03:26:26;99298.13;;;7.73;60.52
80149;BME280;69473;42.426;26.644;2023-04-28T03:28:52;99306.94;;;7.90;59.34
80149;BME280;69473;42.426;26.644;2023-04-28T03:31:17;99308.69;;;7.93;59.99
80149;BME280;69473;42.426;26.644;2023-04-28T03:33:43;99314.75;;;7.96;59.47
80149;BME280;69473;42.426;26.644;2023-04-28T03:36:11;99327.69;;;7.99;58.63
80149;BME280;69473;42.426;26.644;2023-04-28T03:38:37;99316.41;;;7.91;58.91
80149;BME280;69473;42.426;26.644;2023-04-28T03:41:03;99332.66;;;7.84;59.33
80149;BME280;69473;42.426;26.644;2023-04-28T03:43:28;99341.22;;;7.80;59.70
80149;BME280;69473;42.426;26.644;2023-04-28T03:45:54;99339.47;;;7.79;59.90
80149;BME280;69473;42.426;26.644;2023-04-28T03:48:19;99334.28;;;7.76;60.04
80149;BME280;69473;42.426;26.644;2023-04-28T03:50:45;99348.16;;;7.87;59.53
80149;BME280;69473;42.426;26.644;2023-04-28T03:53:10;99351.53;;;7.80;60.25
80149;BME280;69473;42.426;26.644;2023-04-28T03:55:36;99351.56;;;7.83;60.13
80149;BME280;69473;42.426;26.644;2023-04-28T03:58:02;99357.69;;;7.90;60.32
80149;BME280;69473;42.426;26.644;2023-04-28T04:00:27;99355.19;;;7.97;58.90
80149;BME280;69473;42.426;26.644;2023-04-28T04:02:53;99361.28;;;8.02;59.09
80149;BME280;69473;42.426;26.644;2023-04-28T04:05:18;99354.44;;;8.06;59.08
80149;BME280;69473;42.426;26.644;2023-04-28T04:07:44;99362.13;;;8.01;58.72
80149;BME280;69473;42.426;26.644;2023-04-28T04:10:10;99357.91;;;8.08;58.97
80149;BME280;69473;42.426;26.644;2023-04-28T04:12:35;99355.38;;;8.13;59.19
80149;BME280;69473;42.426;26.644;2023-04-28T04:15:01;99360.75;;;8.28;59.09
80149;BME280;69473;42.426;26.644;2023-04-28T04:17:27;99365.94;;;8.31;58.26
80149;BME280;69473;42.426;26.644;2023-04-28T04:19:53;99354.75;;;8.30;59.35
80149;BME280;69473;42.426;26.644;2023-04-28T04:22:18;99361.69;;;8.34;59.00
80149;BME280;69473;42.426;26.644;2023-04-28T04:24:44;99361.00;;;8.46;59.72
80149;BME280;69473;42.426;26.644;2023-04-28T04:27:10;99368.00;;;8.56;59.12
80149;BME280;69473;42.426;26.644;2023-04-28T04:29:35;99369.84;;;8.67;59.62
80149;BME280;69473;42.426;26.644;2023-04-28T04:32:01;99365.53;;;8.67;58.97
80149;BME280;69473;42.426;26.644;2023-04-28T04:34:27;99375.84;;;8.66;58.02
80149;BME280;69473;42.426;26.644;2023-04-28T04:36:52;99375.56;;;8.40;60.51
80149;BME280;69473;42.426;26.644;2023-04-28T04:39:18;99374.69;;;8.39;59.39
80149;BME280;69473;42.426;26.644;2023-04-28T04:41:43;99381.47;;;8.34;58.39
80149;BME280;69473;42.426;26.644;2023-04-28T04:44:09;99386.75;;;8.40;58.65
80149;BME280;69473;42.426;26.644;2023-04-28T04:46:35;99386.75;;;8.40;59.06
80149;BME280;69473;42.426;26.644;2023-04-28T04:49:00;99388.63;;;8.50;59.01
80149;BME280;69473;42.426;26.644;2023-04-28T04:51:26;99382.59;;;8.53;59.46
80149;BME280;69473;42.426;26.644;2023-04-28T04:53:52;99389.38;;;8.43;59.25
80149;BME280;69473;42.426;26.644;2023-04-28T04:56:18;99396.28;;;8.46;58.69
80149;BME280;69473;42.426;26.644;2023-04-28T04:58:43;99393.78;;;8.50;58.94
80149;BME280;69473;42.426;26.644;2023-04-28T05:01:09;99404.94;;;8.48;58.60
80149;BME280;69473;42.426;26.644;2023-04-28T05:03:34;99403.13;;;8.42;58.60
80149;BME280;69473;42.426;26.644;2023-04-28T05:06:00;99404.06;;;8.47;60.46
80149;BME280;69473;42.426;26.644;2023-04-28T05:08:27;99420.56;;;8.60;59.53
80149;BME280;69473;42.426;26.644;2023-04-28T05:10:53;99409.50;;;8.72;58.24
80149;BME280;69473;42.426;26.644;2023-04-28T05:13:18;99415.13;;;9.15;56.84
80149;BME280;69473;42.426;26.644;2023-04-28T05:15:44;99415.50;;;9.58;57.03
80149;BME280;69473;42.426;26.644;2023-04-28T05:18:10;99426.59;;;9.44;56.56
80149;BME280;69473;42.426;26.644;2023-04-28T05:20:36;99413.69;;;9.44;57.40
80149;BME280;69473;42.426;26.644;2023-04-28T05:23:02;99411.97;;;9.49;55.80
80149;BME280;69473;42.426;26.644;2023-04-28T05:25:28;99419.00;;;9.63;55.30
80149;BME280;69473;42.426;26.644;2023-04-28T05:27:55;99410.34;;;9.61;54.25
80149;BME280;69473;42.426;26.644;2023-04-28T05:30:21;99413.91;;;9.75;52.48
80149;BME280;69473;42.426;26.644;2023-04-28T05:32:46;99403.06;;;10.36;52.30
80149;BME280;69473;42.426;26.644;2023-04-28T05:35:12;99403.91;;;12.79;47.26
80149;BME280;69473;42.426;26.644;2023-04-28T05:37:38;99399.31;;;13.19;44.39
80149;BME280;69473;42.426;26.644;2023-04-28T05:40:04;99419.78;;;11.59;48.04
80149;BME280;69473;42.426;26.644;2023-04-28T05:42:30;99419.63;;;10.69;50.09
80149;BME280;69473;42.426;26.644;2023-04-28T05:44:56;99427.31;;;10.44;50.39
80149;BME280;69473;42.426;26.644;2023-04-28T05:47:21;99427.97;;;10.14;50.52
80149;BME280;69473;42.426;26.644;2023-04-28T05:49:47;99431.31;;;9.98;51.64
80149;BME280;69473;42.426;26.644;2023-04-28T05:52:12;99437.94;;;11.67;49.21
80149;BME280;69473;42.426;26.644;2023-04-28T05:54:38;99439.47;;;10.60;50.64
80149;BME280;69473;42.426;26.644;2023-04-28T05:57:04;99426.47;;;10.56;50.29
80149;BME280;69473;42.426;26.644;2023-04-28T05:59:29;99440.31;;;10.64;47.13
80149;BME280;69473;42.426;26.644;2023-04-28T06:01:55;99435.94;;;10.52;49.55
80149;BME280;69473;42.426;26.644;2023-04-28T06:04:21;99447.28;;;10.74;50.33
80149;BME280;69473;42.426;26.644;2023-04-28T06:06:47;99436.16;;;11.09;47.54
80149;BME280;69473;42.426;26.644;2023-04-28T06:09:12;99433.59;;;11.64;44.90
80149;BME280;69473;42.426;26.644;2023-04-28T06:11:38;99433.59;;;11.46;46.26
80149;BME280;69473;42.426;26.644;2023-04-28T06:14:03;99433.88;;;13.44;44.29
80149;BME280;69473;42.426;26.644;2023-04-28T06:16:29;99431.88;;;12.09;46.10
80149;BME280;69473;42.426;26.644;2023-04-28T06:18:54;99433.59;;;11.33;48.54
80149;BME280;69473;42.426;26.644;2023-04-28T06:21:20;99437.88;;;11.07;49.05
80149;BME280;69473;42.426;26.644;2023-04-28T06:23:46;99432.56;;;12.71;43.08
80149;BME280;69473;42.426;26.644;2023-04-28T06:26:12;99425.56;;;19.21;31.95
80149;BME280;69473;42.426;26.644;2023-04-28T06:28:37;99419.69;;;17.15;32.91
80149;BME280;69473;42.426;26.644;2023-04-28T06:31:03;99426.19;;;19.83;29.47
80149;BME280;69473;42.426;26.644;2023-04-28T06:33:29;99431.63;;;21.89;25.73
80149;BME280;69473;42.426;26.644;2023-04-28T06:35:54;99430.38;;;22.59;24.42
80149;BME280;69473;42.426;26.644;2023-04-28T06:38:20;99423.84;;;23.24;23.40
80149;BME280;69473;42.426;26.644;2023-04-28T06:40:46;99406.09;;;22.51;24.41
80149;BME280;69473;42.426;26.644;2023-04-28T06:43:11;99421.97;;;22.89;25.16
80149;BME280;69473;42.426;26.644;2023-04-28T06:45:37;99416.50;;;24.02;22.86
80149;BME280;69473;42.426;26.644;2023-04-28T06:48:04;99419.00;;;24.38;21.93
80149;BME280;69473;42.426;26.644;2023-04-28T06:50:30;99420.97;;;24.52;22.86
80149;BME280;69473;42.426;26.644;2023-04-28T06:52:55;99418.06;;;25.22;22.04
80149;BME280;69473;42.426;26.644;2023-04-28T06:55:23;99415.06;;;24.96;23.08
80149;BME280;69473;42.426;26.644;2023-04-28T06:57:49;99423.41;;;24.22;23.73
80149;BME280;69473;42.426;26.644;2023-04-28T07:00:15;99423.25;;;23.37;23.22
80149;BME280;69473;42.426;26.644;2023-04-28T07:02:41;99435.13;;;22.71;23.29
80149;BME280;69473;42.426;26.644;2023-04-28T07:05:06;99421.19;;;22.28;21.97
80149;BME280;69473;42.426;26.644;2023-04-28T07:07:33;99427.34;;;21.44;22.97
80149;BME280;69473;42.426;26.644;2023-04-28T07:09:59;99436.09;;;17.60;28.45
80149;BME280;69473;42.426;26.644;2023-04-28T07:12:26;99425.97;;;16.21;30.24
80149;BME280;69473;42.426;26.644;2023-04-28T07:14:52;99425.91;;;15.17;31.78
80149;BME280;69473;42.426;26.644;2023-04-28T07:17:17;99432.94;;;14.44;33.57
80149;BME280;69473;42.426;26.644;2023-04-28T07:19:43;99442.72;;;14.22;34.16
80149;BME280;69473;42.426;26.644;2023-04-28T07:22:08;99439.44;;;14.01;34.66
80149;BME280;69473;42.426;26.644;2023-04-28T07:24:34;99431.16;;;14.47;34.48
80149;BME280;69473;42.426;26.644;2023-04-28T07:27:00;99432.28;;;14.25;35.01
80149;BME280;69473;42.426;26.644;2023-04-28T07:29:26;99429.97;;;13.96;34.31
80149;BME280;69473;42.426;26.644;2023-04-28T07:31:58;99420.75;;;13.59;36.22
80149;BME280;69473;42.426;26.644;2023-04-28T07:34:23;99418.19;;;14.41;34.80
80149;BME280;69473;42.426;26.644;2023-04-28T07:36:49;99418.53;;;20.52;26.84
80149;BME280;69473;42.426;26.644;2023-04-28T07:39:14;99401.81;;;23.43;22.71
80149;BME280;69473;42.426;26.644;2023-04-28T07:41:40;99405.63;;;24.75;20.13
80149;BME280;69473;42.426;26.644;2023-04-28T07:44:06;99397.50;;;24.78;20.00
80149;BME280;69473;42.426;26.644;2023-04-28T07:46:35;99404.06;;;21.96;24.22
80149;BME280;69473;42.426;26.644;2023-04-28T07:49:04;99411.25;;;19.57;26.91
80149;BME280;69473;42.426;26.644;2023-04-28T07:51:30;99411.50;;;18.00;28.25
80149;BME280;69473;42.426;26.644;2023-04-28T07:53:56;99407.59;;;17.09;29.30
80149;BME280;69473;42.426;26.644;2023-04-28T07:56:21;99406.97;;;16.57;31.75
80149;BME280;69473;42.426;26.644;2023-04-28T07:58:47;99406.19;;;16.51;31.74
80149;BME280;69473;42.426;26.644;2023-04-28T08:01:13;99404.03;;;16.29;29.99
80149;BME280;69473;42.426;26.644;2023-04-28T08:03:38;99405.47;;;15.98;28.94
80149;BME280;69473;42.426;26.644;2023-04-28T08:06:04;99416.50;;;16.13;31.47
80149;BME280;69473;42.426;26.644;2023-04-28T08:08:30;99416.88;;;15.95;30.08
80149;BME280;69473;42.426;26.644;2023-04-28T08:10:56;99416.34;;;15.73;31.21
80149;BME280;69473;42.426;26.644;2023-04-28T08:13:22;99398.84;;;15.78;31.24
80149;BME280;69473;42.426;26.644;2023-04-28T08:15:48;99408.31;;;15.31;32.97
80149;BME280;69473;42.426;26.644;2023-04-28T08:18:14;99395.06;;;15.42;33.79
80149;BME280;69473;42.426;26.644;2023-04-28T08:20:40;99402.59;;;15.62;33.18
80149;BME280;69473;42.426;26.644;2023-04-28T08:23:06;99409.47;;;15.66;34.24
80149;BME280;69473;42.426;26.644;2023-04-28T08:25:32;99401.78;;;16.11;32.20
80149;BME280;69473;42.426;26.644;2023-04-28T08:27:57;99401.66;;;16.15;32.58
80149;BME280;69473;42.426;26.644;2023-04-28T08:30:23;99397.97;;;16.27;30.67
80149;BME280;69473;42.426;26.644;2023-04-28T08:32:49;99395.16;;;16.36;30.89
80149;BME280;69473;42.426;26.644;2023-04-28T08:35:15;99388.78;;;16.50;31.01
80149;BME280;69473;42.426;26.644;2023-04-28T08:37:42;99389.69;;;16.04;29.31
80149;BME280;69473;42.426;26.644;2023-04-28T08:40:08;99394.91;;;16.04;31.00
80149;BME280;69473;42.426;26.644;2023-04-28T08:42:37;99393.59;;;16.28;31.17
80149;BME280;69473;42.426;26.644;2023-04-28T08:45:03;99393.00;;;15.64;31.97
80149;BME280;69473;42.426;26.644;2023-04-28T08:47:37;99388.22;;;15.35;31.61
80149;BME280;69473;42.426;26.644;2023-04-28T08:50:05;99386.56;;;15.29;32.06
80149;BME280;69473;42.426;26.644;2023-04-28T08:52:32;99393.44;;;15.36;32.26
80149;BME280;69473;42.426;26.644;2023-04-28T08:55:00;99392.66;;;15.31;31.18
80149;BME280;69473;42.426;26.644;2023-04-28T08:57:34;99384.09;;;15.20;31.85
80149;BME280;69473;42.426;26.644;2023-04-28T09:00:03;99392.19;;;15.05;34.02
80149;BME280;69473;42.426;26.644;2023-04-28T09:02:29;99385.03;;;15.17;32.16
80149;BME280;69473;42.426;26.644;2023-04-28T09:04:54;99388.06;;;15.45;32.05
80149;BME280;69473;42.426;26.644;2023-04-28T09:07:20;99390.63;;;15.48;30.75
80149;BME280;69473;42.426;26.644;2023-04-28T09:09:45;99387.22;;;15.43;31.33
80149;BME280;69473;42.426;26.644;2023-04-28T09:12:11;99372.91;;;15.69;31.44
80149;BME280;69473;42.426;26.644;2023-04-28T09:14:37;99379.56;;;15.85;31.34
80149;BME280;69473;42.426;26.644;2023-04-28T09:17:11;99378.50;;;15.44;32.04
80149;BME280;69473;42.426;26.644;2023-04-28T09:19:38;99368.66;;;16.10;32.28
80149;BME280;69473;42.426;26.644;2023-04-28T09:22:05;99367.53;;;16.65;31.64
80149;BME280;69473;42.426;26.644;2023-04-28T09:24:36;99368.94;;;16.81;32.43
80149;BME280;69473;42.426;26.644;2023-04-28T09:27:05;99373.41;;;17.15;29.17
80149;BME280;69473;42.426;26.644;2023-04-28T09:29:37;99374.75;;;16.96;30.51
80149;BME280;69473;42.426;26.644;2023-04-28T09:32:16;99366.09;;;16.92;30.71
80149;BME280;69473;42.426;26.644;2023-04-28T09:34:50;99369.16;;;16.29;31.95
80149;BME280;69473;42.426;26.644;2023-04-28T09:37:18;99373.34;;;16.37;32.08
80149;BME280;69473;42.426;26.644;2023-04-28T09:39:48;99371.31;;;16.07;31.66
80149;BME280;69473;42.426;26.644;2023-04-28T09:45:06;99370.34;;;16.14;30.57
80149;BME280;69473;42.426;26.644;2023-04-28T09:47:37;99369.44;;;16.57;30.08
80149;BME280;69473;42.426;26.644;2023-04-28T09:50:05;99355.69;;;16.49;31.35
80149;BME280;69473;42.426;26.644;2023-04-28T09:52:34;99361.03;;;16.43;30.94
80149;BME280;69473;42.426;26.644;2023-04-28T09:55:03;99361.09;;;16.81;31.76
80149;BME280;69473;42.426;26.644;2023-04-28T09:57:32;99335.69;;;16.87;31.12
80149;BME280;69473;42.426;26.644;2023-04-28T09:59:58;99357.19;;;17.01;30.13
80149;BME280;69473;42.426;26.644;2023-04-28T10:02:25;99342.91;;;16.75;30.11
80149;BME280;69473;42.426;26.644;2023-04-28T10:04:51;99341.06;;;16.80;30.30
80149;BME280;69473;42.426;26.644;2023-04-28T10:07:18;99342.75;;;17.20;31.51
80149;BME280;69473;42.426;26.644;2023-04-28T10:09:52;99340.38;;;17.11;30.19
80149;BME280;69473;42.426;26.644;2023-04-28T10:12:20;99338.47;;;17.16;29.88
80149;BME280;69473;42.426;26.644;2023-04-28T10:14:47;99349.94;;;17.48;31.30
80149;BME280;69473;42.426;26.644;2023-04-28T10:17:16;99343.25;;;17.35;31.37
80149;BME280;69473;42.426;26.644;2023-04-28T10:19:46;99344.13;;;17.69;30.74
80149;BME280;69473;42.426;26.644;2023-04-28T10:27:43;99334.84;;;17.92;32.35
80149;BME280;69473;42.426;26.644;2023-04-28T10:30:10;99338.25;;;17.61;29.42
80149;BME280;69473;42.426;26.644;2023-04-28T10:32:37;99334.22;;;17.48;31.30
80149;BME280;69473;42.426;26.644;2023-04-28T10:40:35;99338.94;;;16.57;29.86
80149;BME280;69473;42.426;26.644;2023-04-28T10:43:02;99336.84;;;16.31;31.60
80149;BME280;69473;42.426;26.644;2023-04-28T10:56:13;99323.25;;;16.57;32.43
80149;BME280;69473;42.426;26.644;2023-04-28T10:58:44;99317.41;;;16.85;31.60
80149;BME280;69473;42.426;26.644;2023-04-28T11:06:39;99318.81;;;16.61;31.21
80149;BME280;69473;42.426;26.644;2023-04-28T11:11:38;99321.81;;;16.43;29.54
80149;BME280;69473;42.426;26.644;2023-04-28T11:14:38;99322.84;;;16.35;30.78
80149;BME280;69473;42.426;26.644;2023-04-28T11:17:08;99323.97;;;16.22;32.21
80149;BME280;69473;42.426;26.644;2023-04-28T11:19:42;99324.03;;;16.19;31.55
80149;BME280;69473;42.426;26.644;2023-04-28T11:22:15;99319.78;;;16.15;33.18
80149;BME280;69473;42.426;26.644;2023-04-28T11:24:54;99319.78;;;16.13;33.40
80149;BME280;69473;42.426;26.644;2023-04-28T11:27:25;99319.31;;;16.36;32.96
80149;BME280;69473;42.426;26.644;2023-04-28T11:29:52;99318.56;;;16.31;31.69
80149;BME280;69473;42.426;26.644;2023-04-28T11:32:28;99309.78;;;16.34;31.67
80149;BME280;69473;42.426;26.644;2023-04-28T11:34:54;99309.13;;;16.24;33.95
80149;BME280;69473;42.426;26.644;2023-04-28T11:37:20;99314.63;;;16.52;32.41
80149;BME280;69473;42.426;26.644;2023-04-28T11:39:47;99314.03;;;16.39;31.55
80149;BME280;69473;42.426;26.644;2023-04-28T11:42:13;99315.41;;;16.57;31.46
80149;BME280;69473;42.426;26.644;2023-04-28T11:44:38;99322.28;;;16.60;31.36
80149;BME280;69473;42.426;26.644;2023-04-28T11:47:06;99314.69;;;16.90;32.02
80149;BME280;69473;42.426;26.644;2023-04-28T11:49:42;99303.78;;;17.08;32.36
80149;BME280;69473;42.426;26.644;2023-04-28T11:52:08;99312.22;;;17.88;33.82
80149;BME280;69473;42.426;26.644;2023-04-28T11:54:35;99313.88;;;17.92;30.32
80149;BME280;69473;42.426;26.644;2023-04-28T11:57:02;99306.97;;;17.88;31.06
80149;BME280;69473;42.426;26.644;2023-04-28T11:59:33;99299.84;;;18.24;29.13
80149;BME280;69473;42.426;26.644;2023-04-28T12:02:03;99305.25;;;18.18;31.02
80149;BME280;69473;42.426;26.644;2023-04-28T12:04:29;99304.44;;;18.45;31.10
80149;BME280;69473;42.426;26.644;2023-04-28T12:07:01;99298.34;;;18.45;28.87
80149;BME280;69473;42.426;26.644;2023-04-28T12:09:27;99286.78;;;18.22;29.26
80149;BME280;69473;42.426;26.644;2023-04-28T12:11:58;99286.78;;;18.22;30.13
80149;BME280;69473;42.426;26.644;2023-04-28T12:14:24;99285.22;;;18.15;29.07
80149;BME280;69473;42.426;26.644;2023-04-28T12:16:50;99300.81;;;17.56;30.43
80149;BME280;69473;42.426;26.644;2023-04-28T12:19:17;99294.78;;;17.18;30.57
80149;BME280;69473;42.426;26.644;2023-04-28T12:21:58;99290.09;;;16.97;29.12
80149;BME280;69473;42.426;26.644;2023-04-28T12:24:24;99290.22;;;16.91;31.95
80149;BME280;69473;42.426;26.644;2023-04-28T12:26:52;99289.94;;;17.03;31.19
80149;BME280;69473;42.426;26.644;2023-04-28T12:29:35;99288.81;;;16.77;30.55
80149;BME280;69473;42.426;26.644;2023-04-28T12:32:03;99283.88;;;16.62;30.60
80149;BME280;69473;42.426;26.644;2023-04-28T12:34:29;99282.91;;;16.66;31.26
80149;BME280;69473;42.426;26.644;2023-04-28T12:36:55;99284.03;;;16.56;32.15
80149;BME280;69473;42.426;26.644;2023-04-28T12:39:21;99285.06;;;16.49;31.69
80149;BME280;69473;42.426;26.644;2023-04-28T12:41:47;99281.66;;;16.85;31.36
80149;BME280;69473;42.426;26.644;2023-04-28T12:44:13;99277.78;;;17.00;30.78
80149;BME280;69473;42.426;26.644;2023-04-28T12:46:40;99282.59;;;17.17;30.26
80149;BME280;69473;42.426;26.644;2023-04-28T12:49:06;99278.34;;;16.77;30.52
80149;BME280;69473;42.426;26.644;2023-04-28T12:51:31;99277.91;;;16.96;30.07
80149;BME280;69473;42.426;26.644;2023-04-28T12:54:00;99269.44;;;16.84;30.87
80149;BME280;69473;42.426;26.644;2023-04-28T12:56:25;99267.44;;;16.94;30.77
80149;BME280;69473;42.426;26.644;2023-04-28T12:58:52;99263.19;;;16.92;31.63
80149;BME280;69473;42.426;26.644;2023-04-28T13:01:17;99263.69;;;17.06;31.68
80149;BME280;69473;42.426;26.644;2023-04-28T13:03:43;99268.00;;;17.07;32.06
80149;BME280;69473;42.426;26.644;2023-04-28T13:06:09;99255.81;;;17.06;31.10
80149;BME280;69473;42.426;26.644;2023-04-28T13:08:35;99262.19;;;16.96;32.68
80149;BME280;69473;42.426;26.644;2023-04-28T13:11:01;99258.81;;;16.91;31.08
80149;BME280;69473;42.426;26.644;2023-04-28T13:13:30;99266.66;;;16.92;30.72
80149;BME280;69473;42.426;26.644;2023-04-28T13:15:55;99253.00;;;16.79;31.27
80149;BME280;69473;42.426;26.644;2023-04-28T13:18:22;99247.25;;;16.62;30.80
80149;BME280;69473;42.426;26.644;2023-04-28T13:20:49;99241.59;;;16.43;30.58
80149;BME280;69473;42.426;26.644;2023-04-28T13:23:14;99247.53;;;16.50;31.04
80149;BME280;69473;42.426;26.644;2023-04-28T13:25:40;99239.00;;;16.42;31.72